Data for 01/27/2007

Time Sea-Level Adjusted Pressure Absolute Pressure Temperature Relative Humidity Dew Point   
(mb) (inHg) (mb) (inHg) (C) (F) (%) (C) (F)
00:05 1023 30.21 852 25.16 -5.2 22.6 61 -11.6 11.1
00:10 1023 30.21 852 25.16 -5.5 22.1 62 -11.7 10.9
00:15 1023 30.21 852 25.16 -5.6 21.9 62 -11.7 10.9
00:20 1023 30.21 852 25.16 -5.6 22 61 -12 10.5
00:25 1023 30.21 852 25.16 -5.6 21.8 60 -12.2 10
00:30 1023 30.21 852 25.16 -5.6 22 61 -12 10.4
00:35 1023 30.21 852 25.16 -5.5 22 58 -12.5 9.5
00:40 1023 30.21 852 25.16 -6 21.2 61 -12.4 9.7
00:45 1023 30.21 853 25.19 -6.2 20.9 60 -12.7 9.2
00:50 1023 30.21 853 25.19 -6 21.3 59 -12.7 9.2
00:55 1023 30.21 853 25.19 -6 21.2 58 -13.1 8.4
01:00 1023 30.21 853 25.19 -5.9 21.4 58 -12.9 8.8
01:05 1023 30.21 853 25.19 -6.2 20.8 59 -13 8.5
01:10 1023 30.21 853 25.19 -6.1 21 59 -12.9 8.7
01:15 1023 30.21 852 25.16 -6.2 20.9 58 -13.1 8.4
01:20 1023 30.21 853 25.19 -6.3 20.7 58 -13.2 8.2
01:25 1023 30.21 853 25.19 -6.4 20.4 59 -13.2 8.3
01:30 1023 30.21 853 25.19 -6.6 20.1 60 -13.2 8.3
01:35 1023 30.21 853 25.19 -6.9 19.6 61 -13.1 8.3
01:40 1024 30.24 853 25.19 -6.8 19.7 60 -13.4 7.9
01:45 1024 30.24 853 25.19 -6.9 19.5 62 -13.1 8.5
01:50 1024 30.24 853 25.19 -7.2 19.1 62 -13.2 8.2
01:55 1024 30.24 853 25.19 -7.2 19.1 63 -13 8.6
02:00 1024 30.24 853 25.19 -7.4 18.8 63 -13.3 8.1
02:05 1024 30.24 853 25.19 -7.5 18.6 64 -13.2 8.3
02:10 1024 30.24 853 25.19 -7.4 18.8 64 -13.1 8.5
02:15 1024 30.24 853 25.19 -7.3 18.9 64 -13.1 8.4
02:20 1024 30.24 853 25.19 -7.2 19.1 63 -13.1 8.4
02:25 1024 30.24 853 25.19 -7.3 18.9 64 -13 8.6
02:30 1024 30.24 853 25.19 -7.6 18.3 65 -13 8.6
02:35 1024 30.24 853 25.19 -7.7 18.2 65 -13.1 8.4
02:40 1024 30.24 853 25.19 -7.7 18.1 66 -13.1 8.5
02:45 1024 30.24 853 25.19 -7.9 17.7 66 -13.2 8.3
02:50 1024 30.24 853 25.19 -8.3 17 68 -13.3 8.1
02:55 1024 30.24 853 25.19 -8.5 16.8 68 -13.3 8.1
03:00 1024 30.24 853 25.19 -8.4 16.9 68 -13.2 8.2
03:05 1024 30.24 853 25.19 -8.5 16.8 68 -13.4 7.8
03:10 1024 30.24 853 25.19 -8.5 16.7 67 -13.6 7.5
03:15 1024 30.24 853 25.19 -8.6 16.5 66 -13.9 7
03:20 1024 30.24 853 25.19 -8.6 16.6 64 -14.1 6.6
03:25 1024 30.24 853 25.19 -8.6 16.5 64 -14.3 6.2
03:30 1024 30.24 853 25.19 -8.7 16.3 64 -14.3 6.3
03:35 1024 30.24 853 25.19 -9.2 15.4 66 -14.4 6.1
03:40 1024 30.24 853 25.19 -9.6 14.8 68 -14.5 6
03:45 1024 30.24 853 25.19 -9.6 14.7 67 -14.6 5.8
03:50 1024 30.24 853 25.19 -9.3 15.2 66 -14.7 5.6
03:55 1024 30.24 854 25.22 -9.5 15 66 -14.8 5.4
04:00 1024 30.24 853 25.19 -9.6 14.7 67 -14.7 5.5
04:05 1024 30.24 853 25.19 -9.7 14.6 66 -14.9 5.1
04:10 1024 30.24 853 25.19 -10.2 13.6 67 -15.2 4.7
04:15 1024 30.24 854 25.22 -10.1 13.8 67 -15.1 4.8
04:20 1024 30.24 854 25.22 -9.6 14.7 65 -15.1 4.9
04:25 1024 30.24 854 25.22 -9.4 15.1 64 -14.9 5.2
04:30 1024 30.24 854 25.22 -9.5 15 65 -15 5.1
04:35 1024 30.24 854 25.22 -9.6 14.8 64 -15.1 4.8
04:40 1025 30.27 854 25.22 -9.8 14.3 65 -15.2 4.6
04:45 1025 30.27 854 25.22 -9.8 14.3 65 -15.2 4.6
04:50 1025 30.27 854 25.22 -9.9 14.2 66 -15 4.9
04:55 1025 30.27 854 25.22 -9.8 14.5 66 -15 5
05:00 1025 30.27 854 25.22 -9.6 14.8 65 -14.9 5.2
05:05 1025 30.27 854 25.22 -9.4 15.2 65 -14.7 5.5
05:10 1025 30.27 854 25.22 -9.2 15.4 65 -14.6 5.8
05:15 1024 30.24 854 25.22 -9.2 15.5 65 -14.6 5.8
05:20 1024 30.24 854 25.22 -9.2 15.5 65 -14.7 5.6
05:25 1025 30.27 854 25.22 -9.1 15.6 64 -14.7 5.5
05:30 1024 30.24 854 25.22 -9.2 15.4 65 -14.7 5.5
05:35 1025 30.27 854 25.22 -9.3 15.3 65 -14.8 5.4
05:40 1025 30.27 854 25.22 -9.3 15.3 64 -14.9 5.1
05:45 1025 30.27 854 25.22 -9.4 15.1 64 -15 4.9
05:50 1025 30.27 854 25.22 -9.5 14.9 64 -15.1 4.8
05:55 1025 30.27 854 25.22 -9.5 14.9 63 -15.3 4.5
06:00 1025 30.27 854 25.22 -9.6 14.7 63 -15.3 4.4
06:05 1025 30.27 854 25.22 -9.8 14.3 64 -15.4 4.3
06:10 1025 30.27 854 25.22 -9.9 14.2 64 -15.5 4
06:15 1025 30.27 854 25.22 -9.8 14.4 63 -15.5 4.2
06:20 1025 30.27 854 25.22 -9.8 14.3 63 -15.6 3.9
06:25 1025 30.27 854 25.22 -10 14.1 64 -15.6 3.9
06:30 1025 30.27 854 25.22 -10.3 13.5 65 -15.6 3.8
06:35 1025 30.27 854 25.22 -10.3 13.5 65 -15.7 3.7
06:40 1025 30.27 854 25.22 -10.9 12.5 66 -16 3.2
06:45 1025 30.27 854 25.22 -11.8 10.9 69 -16.4 2.4
06:50 1025 30.27 854 25.22 -11.9 10.6 69 -16.4 2.4
06:55 1025 30.27 854 25.22 -11.7 11 68 -16.5 2.3
07:00 1025 30.27 854 25.22 -11.9 10.6 69 -16.5 2.2
07:05 1025 30.27 854 25.22 -12 10.5 69 -16.5 2.3
07:10 1025 30.27 854 25.22 -12 10.5 70 -16.5 2.4
07:15 1025 30.27 854 25.22 -12.1 10.1 69 -16.6 2
07:20 1025 30.27 854 25.22 -12.3 9.8 71 -16.6 2.2
07:25 1025 30.27 854 25.22 -12.3 9.8 71 -16.6 2.2
07:30 1025 30.27 854 25.22 -12.3 9.9 71 -16.4 2.4
07:35 1025 30.27 854 25.22 -12 10.4 72 -16.2 2.9
07:40 1025 30.27 854 25.22 -11.9 10.7 71 -16.2 2.9
07:45 1025 30.27 854 25.22 -11.9 10.7 71 -16.1 2.9
07:50 1025 30.27 854 25.22 -11.9 10.6 70 -16.2 2.8
07:55 1025 30.27 854 25.22 -11.9 10.7 70 -16.2 2.8
08:00 1025 30.27 854 25.22 -11.8 10.7 70 -16.3 2.7
08:05 1025 30.27 854 25.22 -11.6 11.1 70 -16 3.2
08:10 1025 30.27 854 25.22 -11.4 11.4 70 -15.9 3.3
08:15 1025 30.27 855 25.25 -11.4 11.6 70 -15.8 3.5
08:20 1025 30.27 854 25.22 -10.9 12.4 68 -15.8 3.6
08:25 1025 30.27 854 25.22 -10.6 12.9 66 -15.8 3.5
08:30 1025 30.27 855 25.25 -10.7 12.7 66 -15.9 3.3
08:35 1025 30.27 855 25.25 -10.6 12.9 65 -15.9 3.4
08:40 1025 30.27 855 25.25 -10.8 12.6 66 -16 3.2
08:45 1025 30.27 855 25.25 -11.4 11.5 68 -16.2 2.9
08:50 1025 30.27 855 25.25 -11.9 10.6 69 -16.5 2.3
08:55 1025 30.27 855 25.25 -12.1 10.2 70 -16.5 2.2
09:00 1025 30.27 855 25.25 -11.5 11.2 67 -16.5 2.3
09:05 1026 30.3 855 25.25 -10.9 12.4 65 -16.2 2.8
09:10 1025 30.27 855 25.25 -10.6 12.8 64 -16.1 3
09:15 1026 30.3 855 25.25 -9.8 14.4 61 -15.9 3.3
09:20 1025 30.27 855 25.25 -8.8 16.2 58 -15.7 3.7
09:25 1025 30.27 855 25.25 -8.3 17.1 57 -15.4 4.2
09:30 1025 30.27 855 25.25 -8.4 16.9 56 -15.7 3.8
09:35 1025 30.27 855 25.25 -8 17.5 55 -15.6 3.9
09:40 1026 30.3 855 25.25 -8 17.6 55 -15.5 4.1
09:45 1026 30.3 855 25.25 -7.8 18 55 -15.4 4.2
09:50 1026 30.3 855 25.25 -7.6 18.3 54 -15.3 4.4
09:55 1026 30.3 855 25.25 -7.9 17.8 55 -15.3 4.4
10:00 1026 30.3 855 25.25 -7.7 18.1 55 -15.2 4.6
10:05 1026 30.3 855 25.25 -7.5 18.5 54 -15.3 4.4
10:10 1026 30.3 855 25.25 -7.1 19.3 52 -15.4 4.2
10:15 1026 30.3 855 25.25 -6.9 19.6 51 -15.4 4.3
10:20 1026 30.3 855 25.25 -7.1 19.3 51 -15.5 4.1
10:25 1026 30.3 855 25.25 -6.4 20.5 49 -15.4 4.3
10:30 1026 30.3 855 25.25 -6.4 20.4 50 -15.3 4.5
10:35 1026 30.3 855 25.25 -6.7 19.9 51 -15.2 4.6
10:40 1026 30.3 855 25.25 -6.8 19.7 51 -15.4 4.4
10:45 1026 30.3 855 25.25 -7.9 17.8 56 -15.2 4.6
10:50 1026 30.3 855 25.25 -8 17.7 56 -15.4 4.3
10:55 1026 30.3 855 25.25 -7.8 18.1 55 -15.4 4.3
11:00 1026 30.3 855 25.25 -7.3 18.8 53 -15.3 4.5
11:05 1026 30.3 855 25.25 -7.3 18.8 54 -15.1 4.8
11:10 1026 30.3 855 25.25 -7.6 18.4 54 -15.5 4.2
11:15 1026 30.3 855 25.25 -7.6 18.4 54 -15.3 4.4
11:20 1026 30.3 855 25.25 -7.7 18.2 54 -15.4 4.4
11:25 1026 30.3 855 25.25 -7.3 18.8 53 -15.3 4.4
11:30 1025 30.27 855 25.25 -7.1 19.3 52 -15.4 4.3
11:35 1025 30.27 855 25.25 -6.7 20 51 -15.1 4.8
11:40 1025 30.27 855 25.25 -6.4 20.6 52 -14.8 5.4
11:45 1025 30.27 855 25.25 -5.7 21.7 48 -15.1 4.8
11:50 1025 30.27 855 25.25 -5.5 22.2 48 -14.8 5.4
11:55 1025 30.27 855 25.25 -5.4 22.2 50 -14.4 6.1
12:00 1025 30.27 854 25.22 -5.6 21.8 48 -15.1 4.8
12:05 1025 30.27 854 25.22 -5.6 22 49 -14.7 5.6
12:10 1025 30.27 854 25.22 -5.2 22.7 46 -15 4.9
12:15 1025 30.27 855 25.25 -5.5 22.1 49 -14.6 5.7
12:20 1025 30.27 854 25.22 -6.8 19.8 53 -14.9 5.2
12:25 1025 30.27 854 25.22 -6.8 19.8 54 -14.7 5.5
12:30 1025 30.27 854 25.22 -6.4 20.4 53 -14.6 5.7
12:35 1025 30.27 854 25.22 -6.1 21 52 -14.5 5.9
12:40 1025 30.27 854 25.22 -5.9 21.4 52 -14.2 6.4
12:45 1025 30.27 854 25.22 -6.2 20.9 53 -14.3 6.3
12:50 1025 30.27 854 25.22 -6.8 19.9 56 -14.2 6.4
12:55 1025 30.27 854 25.22 -6.8 19.7 54 -14.6 5.8
13:00 1025 30.27 854 25.22 -6.7 20 54 -14.4 6
13:05 1025 30.27 854 25.22 -6.7 19.9 53 -14.7 5.5
13:10 1025 30.27 854 25.22 -6.1 21.1 51 -14.6 5.7
13:15 1025 30.27 854 25.22 -5.9 21.5 51 -14.5 5.9
13:20 1025 30.27 854 25.22 -6.2 20.9 53 -14.4 6.2
13:25 1025 30.27 854 25.22 -6.5 20.3 53 -14.6 5.7
13:30 1025 30.27 854 25.22 -6.3 20.6 53 -14.5 5.9
13:35 1025 30.27 854 25.22 -6.2 20.8 52 -14.6 5.8
13:40 1025 30.27 854 25.22 -6.2 20.8 53 -14.3 6.3
13:45 1025 30.27 854 25.22 -6.6 20 54 -14.5 5.8
13:50 1025 30.27 854 25.22 -6.4 20.5 52 -14.6 5.7
13:55 1024 30.24 854 25.22 -5.8 21.6 51 -14.4 6.1
14:00 1024 30.24 854 25.22 -5.2 22.6 50 -14 6.8
14:05 1024 30.24 854 25.22 -5.1 22.7 49 -14.2 6.4
14:10 1024 30.24 853 25.19 -5.5 22 50 -14.5 5.9
14:15 1024 30.24 853 25.19 -5.2 22.7 49 -14.4 6.1
14:20 1024 30.24 853 25.19 -4.9 23.2 49 -14.2 6.5
14:25 1024 30.24 853 25.19 -4.8 23.3 49 -14.1 6.7
14:30 1024 30.24 853 25.19 -4.7 23.6 47 -14.3 6.2
14:35 1024 30.24 853 25.19 -4.5 24 45 -14.6 5.7
14:40 1024 30.24 853 25.19 -4.4 24.1 46 -14.4 6.1
14:45 1024 30.24 853 25.19 -4.3 24.3 46 -14.3 6.2
14:50 1024 30.24 853 25.19 -4.1 24.6 46 -14.1 6.5
14:55 1024 30.24 853 25.19 -4.1 24.5 46 -14.1 6.5
15:00 1024 30.24 853 25.19 -4.3 24.3 46 -14.3 6.2
15:05 1024 30.24 853 25.19 -4.9 23.2 48 -14.2 6.5
15:10 1024 30.24 853 25.19 -4.8 23.3 47 -14.4 6.1
15:15 1024 30.24 853 25.19 -4.8 23.3 48 -14.3 6.3
15:20 1024 30.24 853 25.19 -5.3 22.5 48 -14.6 5.7
15:25 1024 30.24 853 25.19 -5.4 22.3 48 -14.7 5.6
15:30 1024 30.24 853 25.19 -5.2 22.7 48 -14.7 5.6
15:35 1024 30.24 853 25.19 -5.1 22.8 48 -14.5 5.8
15:40 1024 30.24 853 25.19 -5.2 22.6 47 -14.8 5.4
15:45 1024 30.24 853 25.19 -5.4 22.2 49 -14.5 5.9
15:50 1024 30.24 853 25.19 -5.4 22.3 48 -14.7 5.6
15:55 1024 30.24 853 25.19 -5.1 22.8 48 -14.5 5.9
16:00 1024 30.24 853 25.19 -5.4 22.4 50 -14.3 6.2
16:05 1024 30.24 853 25.19 -5.6 22 50 -14.5 6
16:10 1024 30.24 853 25.19 -5.7 21.7 51 -14.3 6.3
16:15 1024 30.24 853 25.19 -5.3 22.5 48 -14.6 5.7
16:20 1024 30.24 853 25.19 -4.9 23.2 47 -14.4 6
16:25 1024 30.24 853 25.19 -4.8 23.4 46 -14.7 5.6
16:30 1024 30.24 853 25.19 -4.7 23.5 46 -14.6 5.6
16:35 1024 30.24 853 25.19 -4.5 24 46 -14.4 6.1
16:40 1024 30.24 853 25.19 -4.9 23.2 47 -14.5 6
16:45 1024 30.24 853 25.19 -5.2 22.7 49 -14.4 6.1
16:50 1023 30.21 853 25.19 -5.2 22.6 49 -14.4 6
16:55 1023 30.21 853 25.19 -5.2 22.7 49 -14.4 6
17:00 1023 30.21 853 25.19 -4.9 23.1 48 -14.4 6.1
17:05 1023 30.21 853 25.19 -4.8 23.4 47 -14.4 6
17:10 1023 30.21 853 25.19 -4.6 23.7 48 -14 6.8
17:15 1023 30.21 853 25.19 -5.2 22.6 51 -13.9 6.9
17:20 1023 30.21 853 25.19 -5.9 21.4 52 -14.2 6.5
17:25 1023 30.21 853 25.19 -6.6 20.2 54 -14.5 5.9
17:30 1023 30.21 853 25.19 -6.8 19.8 53 -14.7 5.5
17:35 1023 30.21 853 25.19 -6.6 20.2 52 -14.8 5.4
17:40 1023 30.21 852 25.16 -6.8 19.8 55 -14.3 6.2
17:45 1023 30.21 853 25.19 -7.1 19.3 57 -14.2 6.4
17:50 1023 30.21 853 25.19 -7.3 18.8 58 -14.3 6.2
17:55 1023 30.21 852 25.16 -7.8 18 60 -14.2 6.4
18:00 1023 30.21 852 25.16 -8.2 17.3 60 -14.5 5.8
18:05 1023 30.21 852 25.16 -8.4 17 60 -14.7 5.5
18:10 1023 30.21 852 25.16 -8.5 16.7 61 -14.9 5.3
18:15 1023 30.21 852 25.16 -8.5 16.6 60 -15 5
18:20 1023 30.21 852 25.16 -8.6 16.6 60 -15.1 4.8
18:25 1023 30.21 852 25.16 -8.7 16.4 59 -15.3 4.5
18:30 1023 30.21 853 25.19 -8.6 16.6 59 -15.3 4.5
18:35 1023 30.21 853 25.19 -8.6 16.5 58 -15.4 4.4
18:40 1023 30.21 853 25.19 -8.6 16.6 58 -15.5 4.1
18:45 1023 30.21 853 25.19 -8.7 16.3 57 -15.7 3.8
18:50 1023 30.21 853 25.19 -8.9 16.1 57 -15.8 3.5
18:55 1024 30.24 853 25.19 -8.9 16 57 -15.9 3.3
19:00 1024 30.24 853 25.19 -8.8 16.1 57 -15.8 3.6
19:05 1023 30.21 853 25.19 -9 15.7 58 -15.8 3.5
19:10 1024 30.24 853 25.19 -9.1 15.5 58 -16 3.3
19:15 1024 30.24 853 25.19 -9.2 15.5 58 -15.9 3.3
19:20 1024 30.24 853 25.19 -9.1 15.6 59 -15.7 3.7
19:25 1024 30.24 853 25.19 -9 15.8 60 -15.4 4.2
19:30 1024 30.24 853 25.19 -9 15.7 59 -15.7 3.8
19:35 1024 30.24 853 25.19 -8.9 15.9 59 -15.7 3.8
19:40 1024 30.24 853 25.19 -8.5 16.7 57 -15.7 3.8
19:45 1024 30.24 853 25.19 -8.5 16.6 57 -15.7 3.8
19:50 1024 30.24 853 25.19 -8.3 17.1 55 -15.7 3.7
19:55 1024 30.24 853 25.19 -8.4 16.9 56 -15.7 3.8
20:00 1024 30.24 853 25.19 -8.6 16.5 57 -15.6 3.9
20:05 1024 30.24 853 25.19 -9.2 15.5 60 -15.6 3.8
20:10 1024 30.24 853 25.19 -9.8 14.3 62 -15.7 3.7
20:15 1024 30.24 853 25.19 -9.8 14.3 63 -15.7 3.8
20:20 1024 30.24 853 25.19 -9.6 14.7 62 -15.7 3.7
20:25 1024 30.24 853 25.19 -9.5 15 60 -15.8 3.5
20:30 1024 30.24 853 25.19 -9.5 14.9 59 -16.1 3
20:35 1024 30.24 853 25.19 -9.5 14.9 59 -16.1 3.1
20:40 1024 30.24 853 25.19 -9.7 14.5 60 -16.1 2.9
20:45 1023 30.21 853 25.19 -10 14.1 61 -16.1 3.1
20:50 1023 30.21 853 25.19 -9.8 14.4 61 -15.9 3.3
20:55 1023 30.21 853 25.19 -9.6 14.8 60 -16 3.2
21:00 1023 30.21 852 25.16 -9.6 14.7 61 -15.8 3.5
21:05 1023 30.21 852 25.16 -9.5 14.8 60 -16 3.3
21:10 1023 30.21 852 25.16 -9.6 14.7 60 -16 3.3
21:15 1023 30.21 852 25.16 -10 14 61 -16.2 2.9
21:20 1023 30.21 852 25.16 -10.2 13.7 61 -16.3 2.7
21:25 1023 30.21 852 25.16 -9.9 14.2 61 -16 3.1
21:30 1023 30.21 852 25.16 -9.5 15 59 -16 3.3
21:35 1023 30.21 852 25.16 -9.4 15.2 59 -16 3.2
21:40 1023 30.21 852 25.16 -9.5 15 60 -15.9 3.3
21:45 1023 30.21 852 25.16 -9.3 15.3 58 -16.2 2.9
21:50 1023 30.21 852 25.16 -9.2 15.4 58 -16 3.1
21:55 1023 30.21 852 25.16 -9.4 15.2 58 -16.1 3
22:00 1023 30.21 852 25.16 -9.2 15.4 58 -16.1 3.1
22:05 1023 30.21 852 25.16 -9.6 14.7 60 -16.1 3
22:10 1023 30.21 852 25.16 -10.1 13.9 61 -16.2 2.8
22:15 1023 30.21 852 25.16 -10.3 13.5 62 -16.3 2.7
22:20 1023 30.21 852 25.16 -10.3 13.5 62 -16.3 2.7
22:25 1023 30.21 852 25.16 -10.3 13.4 62 -16.3 2.6
22:30 1023 30.21 852 25.16 -10.4 13.3 62 -16.3 2.6
22:35 1023 30.21 852 25.16 -10.5 13 63 -16.4 2.5
22:40 1023 30.21 852 25.16 -10.6 12.9 63 -16.4 2.5
22:45 1023 30.21 852 25.16 -10.7 12.8 64 -16.2 2.8
22:50 1023 30.21 852 25.16 -10.2 13.7 62 -16.2 2.9
22:55 1023 30.21 852 25.16 -9.7 14.6 60 -16 3.2
23:00 1023 30.21 852 25.16 -9.6 14.7 60 -16.1 3.1
23:05 1023 30.21 852 25.16 -9.6 14.7 60 -16 3.2
23:10 1023 30.21 852 25.16 -9.7 14.6 60 -16.1 3
23:15 1023 30.21 852 25.16 -10.2 13.7 62 -16.2 2.8
23:20 1023 30.21 852 25.16 -10.7 12.7 62 -16.6 2.1
23:25 1023 30.21 852 25.16 -11.2 11.8 65 -16.6 2.1
23:30 1023 30.21 852 25.16 -11.2 11.8 64 -16.7 1.9
23:35 1023 30.21 852 25.16 -10.9 12.3 63 -16.7 2
23:40 1023 30.21 852 25.16 -10.3 13.5 60 -16.6 2.2
23:45 1023 30.21 852 25.16 -9.7 14.6 58 -16.4 2.4
23:50 1023 30.21 852 25.16 -9.3 15.3 57 -16.4 2.6
23:55 1023 30.21 852 25.16 -9 15.7 57 -16.2 2.9
24:00 1023 30.21 852 25.16 -9.1 15.6 57 -16.1 3